Aérodrome :
LOGIN :

S'inscrire | Disclaimer

   EN    FR    IT 

 










Légende :    VFR   VFR Marginal   IFR   IFR Intensif   IFR Très Intensif
Visi : 
Plafond : 
>= 8 km
>= 3000ft
5 à 8 km
1000 à 3000 ft
1500m à 5 km
500 à 1000 ft
800 à 1500m
200 à 500 ft
< 800m
< 200 ft
Symboles :   Orages  Brouillard  Fortes neiges  Fortes précipitations  Vent > 20 kt
SIGMETs :   Divers  Orages  Givrage  Turbulence  Onde Orograph.  Cendres Volcan.







- Altitude de l'aérodrome : 137 ft
- Code IATA : THN


ESGT - Trollhattan-Vanersborg

DERNIER METAR :
  • 240750Z AUTO VRB03KT 9999 -RA BKN003/// 17/17 Q1020 RERA

METARs EXPIRÉS :
  • 240720Z AUTO VRB03KT 6000 -RA OVC002/// 16/16 Q1020 REDZ
  • 240650Z AUTO VRB02KT 6000 OVC002/// 16/16 Q1019 REDZ
  • 240620Z AUTO VRB02KT 0550 R15/P2000N R33/0750N -DZ OVC001/// 16/16 Q1019
  • 240550Z AUTO VRB02KT 0350 R15/0800N R33/0600N -DZ OVC001/// 16/15 Q1019
  • 240520Z AUTO 20003KT 170V230 0350 R15/0600N R33/0650N -DZ OVC001/// 15/15 Q1019

Prévision TAF périmée.
Pas de NOTAMs connus pour ce terrain.



MET'MAP, la Météo Aéronautique d'un coup d'oeil ! - Copyright ORBIFLY Décembre 2007 - Disclaimer

ORBIFLY MET'MAP TEAM :

Programmation & Développement : Alexandra Zaïnal
Conception & Développement : Baudouin d'Aumeries
Co-Programmation & Développement : Marc-Olivier Méhu
Soutien technique & logistique : Manuel Goepfert

Contact : metmap@orbifly.com




SOURCES & CREDITS :

   NOAA